Terminal Aerodrome Forecast
Issued by NWS Boise, ID

Home | Current Version | Previous Version | Text Only | Print | Product List | Glossary On
Versions: 1 2 3 4 5 6 7 8 9 10 11 12 13 14 15 16 17 18 19 20 21 22 23 24 25 26
000
FTUS45 KBOI 101738
TAFBOI
TAF
KBOI 101738Z 1018/1118 33008KT 3/4SM BR SCT001 OVC015
      TEMPO 1020/1024 3SM BR
     FM110600 VRB04KT 1/2SM FG BKN005
     FM111600 VRB04KT 1SM BR SCT005 OVC090=

USA.gov is the U.S. government's official web portal to all federal, state and local government web resources and services.